createdAt,value
2022-10-05T04:00:31.297Z,0.00
2022-10-05T04:05:31.217Z,0.00
2022-10-05T04:10:31.235Z,0.00
2022-10-05T04:15:31.271Z,0.00
2022-10-05T04:20:38.289Z,0.00
2022-10-05T04:25:31.005Z,0.00
2022-10-05T04:30:30.951Z,0.00
2022-10-05T04:35:30.897Z,0.00
2022-10-05T04:40:30.918Z,0.00
2022-10-05T04:45:30.790Z,0.00
2022-10-05T04:50:30.738Z,0.00
2022-10-05T04:55:30.704Z,0.00
2022-10-05T05:00:30.695Z,0.00
2022-10-05T05:05:30.577Z,0.00
2022-10-05T05:10:30.522Z,0.00
2022-10-05T05:15:30.468Z,4.00
2022-10-05T05:20:30.430Z,4.00
2022-10-05T05:25:30.359Z,8.00
2022-10-05T05:30:30.306Z,16.00
2022-10-05T05:35:30.251Z,36.00
2022-10-05T05:40:30.211Z,64.00
2022-10-05T05:45:30.148Z,100.00
2022-10-05T05:50:30.074Z,136.00
2022-10-05T05:55:30.647Z,172.00
2022-10-05T06:00:29.990Z,208.00
2022-10-05T06:05:29.930Z,220.00
2022-10-05T06:10:29.874Z,260.00
2022-10-05T06:15:29.818Z,368.00
2022-10-05T06:20:29.793Z,496.00
2022-10-05T06:25:29.709Z,592.00
2022-10-05T06:30:29.660Z,740.00
2022-10-05T06:35:29.598Z,812.00
2022-10-05T06:40:29.570Z,860.00
2022-10-05T06:45:29.522Z,956.00
2022-10-05T06:50:29.436Z,1080.00
2022-10-05T06:55:29.379Z,1172.00
2022-10-05T07:00:29.349Z,1376.00
2022-10-05T07:05:29.273Z,1552.00
2022-10-05T07:10:29.214Z,1588.00
2022-10-05T07:15:29.329Z,1692.00
2022-10-05T07:20:29.120Z,1620.00
2022-10-05T07:25:29.043Z,1656.00
2022-10-05T07:30:29.103Z,1708.00
2022-10-05T07:35:28.930Z,1660.00
2022-10-05T07:40:28.899Z,1660.00
2022-10-05T07:45:28.913Z,1696.00
2022-10-05T07:50:28.759Z,1652.00
2022-10-05T07:55:28.716Z,1708.00
2022-10-05T08:00:28.702Z,1636.00
2022-10-05T08:05:28.595Z,1708.00
2022-10-05T08:10:28.684Z,1760.00
2022-10-05T08:15:28.505Z,1724.00
2022-10-05T08:20:28.512Z,1680.00
2022-10-05T08:25:28.388Z,1768.00
2022-10-05T08:30:28.345Z,2404.00
2022-10-05T08:35:28.271Z,2900.00
2022-10-05T08:40:28.258Z,3604.00
2022-10-05T08:45:28.173Z,4004.00
2022-10-05T08:50:28.118Z,4144.00
2022-10-05T08:55:28.060Z,4260.00
2022-10-05T09:00:28.143Z,4304.00
2022-10-05T09:05:27.949Z,4344.00
2022-10-05T09:10:27.897Z,4520.00
2022-10-05T09:15:27.841Z,4376.00
2022-10-05T09:20:27.819Z,4036.00
2022-10-05T09:25:27.741Z,4096.00
2022-10-05T09:30:27.678Z,4156.00
2022-10-05T09:35:27.631Z,4228.00
2022-10-05T09:40:27.608Z,4244.00
2022-10-05T09:45:27.546Z,4504.00
2022-10-05T09:50:27.465Z,5136.00
2022-10-05T09:55:27.447Z,5504.00
2022-10-05T10:00:27.384Z,5484.00
2022-10-05T10:05:27.330Z,5684.00
2022-10-05T10:10:27.249Z,6260.00
2022-10-05T10:15:27.193Z,5972.00
2022-10-05T10:20:34.259Z,5428.00
2022-10-05T10:25:27.082Z,5412.00
2022-10-05T10:30:27.730Z,6308.00
2022-10-05T10:35:27.035Z,7316.00
2022-10-05T10:40:27.028Z,6840.00
2022-10-05T10:45:26.870Z,6632.00
2022-10-05T10:50:26.822Z,6060.00
2022-10-05T10:55:26.765Z,7756.00
2022-10-05T11:00:26.731Z,6456.00
2022-10-05T11:05:26.655Z,6868.00
2022-10-05T11:10:26.604Z,7452.00
2022-10-05T11:15:26.568Z,5868.00
2022-10-05T11:20:26.510Z,5640.00
2022-10-05T11:25:26.439Z,7176.00
2022-10-05T11:30:26.371Z,4708.00
2022-10-05T11:35:26.338Z,6160.00
2022-10-05T11:40:26.321Z,6424.00
2022-10-05T11:45:26.217Z,6320.00
2022-10-05T11:50:26.163Z,5728.00
2022-10-05T11:55:26.105Z,5344.00
2022-10-05T12:00:26.164Z,5484.00
2022-10-05T12:05:25.998Z,5464.00
2022-10-05T12:10:25.987Z,5264.00
2022-10-05T12:15:25.887Z,5444.00
2022-10-05T12:20:25.858Z,5512.00
2022-10-05T12:25:25.775Z,5500.00
2022-10-05T12:30:25.933Z,5508.00
2022-10-05T12:35:43.971Z,5356.00
2022-10-05T12:40:26.640Z,5392.00
2022-10-05T12:45:25.613Z,5336.00
2022-10-05T12:50:25.499Z,5412.00
2022-10-05T12:55:25.453Z,5432.00
2022-10-05T13:00:25.396Z,5304.00
2022-10-05T13:05:25.334Z,5280.00
2022-10-05T13:10:25.290Z,5212.00
2022-10-05T13:15:25.227Z,5264.00
2022-10-05T13:20:25.193Z,5272.00
2022-10-05T13:25:25.129Z,5248.00
2022-10-05T13:30:25.067Z,5224.00
2022-10-05T13:35:25.010Z,5172.00
2022-10-05T13:40:25.000Z,5032.00
2022-10-05T13:45:25.037Z,5084.00
2022-10-05T13:50:26.596Z,5064.00
2022-10-05T13:55:24.799Z,4960.00
2022-10-05T14:00:26.982Z,4904.00
2022-10-05T14:05:24.696Z,4872.00
2022-10-05T14:10:24.625Z,4920.00
2022-10-05T14:15:24.581Z,4764.00
2022-10-05T14:20:24.551Z,4688.00
2022-10-05T14:25:24.477Z,4560.00
2022-10-05T14:30:24.428Z,4588.00
2022-10-05T14:35:24.367Z,4568.00
2022-10-05T14:40:24.350Z,4544.00
2022-10-05T14:45:24.306Z,4532.00
2022-10-05T14:50:24.207Z,4372.00
2022-10-05T14:55:24.143Z,4260.00
2022-10-05T15:00:24.113Z,4180.00
2022-10-05T15:05:24.037Z,4048.00
2022-10-05T15:10:23.983Z,3828.00
2022-10-05T15:15:23.941Z,3568.00
2022-10-05T15:20:23.891Z,3256.00
2022-10-05T15:25:23.820Z,2764.00
2022-10-05T15:30:23.762Z,2356.00
2022-10-05T15:35:23.709Z,2192.00
2022-10-05T15:40:23.675Z,2028.00
2022-10-05T15:45:23.600Z,1924.00
2022-10-05T15:50:23.565Z,1724.00
2022-10-05T15:55:23.498Z,1628.00
2022-10-05T16:00:23.612Z,1308.00
2022-10-05T16:05:23.409Z,956.00
2022-10-05T16:10:23.390Z,724.00
2022-10-05T16:15:23.280Z,608.00
2022-10-05T16:20:23.325Z,504.00
2022-10-05T16:25:23.190Z,400.00
2022-10-05T16:30:23.135Z,260.00
2022-10-05T16:35:23.071Z,172.00
2022-10-05T16:40:23.058Z,140.00
2022-10-05T16:45:22.970Z,132.00
2022-10-05T16:50:22.915Z,140.00
2022-10-05T16:55:22.861Z,128.00
2022-10-05T17:00:22.833Z,108.00
2022-10-05T17:05:22.760Z,80.00
2022-10-05T17:10:22.709Z,36.00
2022-10-05T17:15:22.716Z,16.00
2022-10-05T17:20:22.618Z,8.00
2022-10-05T17:25:22.544Z,0.00
2022-10-05T17:30:22.494Z,0.00
2022-10-05T17:35:22.431Z,0.00
2022-10-05T17:40:27.720Z,0.00
2022-10-05T17:45:23.324Z,0.00
2022-10-05T17:50:22.266Z,0.00
2022-10-05T17:55:22.215Z,0.00
2022-10-05T18:00:22.178Z,0.00
2022-10-05T18:05:22.107Z,0.00
2022-10-05T18:10:22.051Z,0.00
2022-10-05T18:15:21.998Z,0.00
2022-10-05T18:20:22.047Z,0.00
2022-10-05T18:25:21.895Z,0.00
2022-10-05T18:30:21.840Z,0.00
2022-10-05T18:35:21.780Z,0.00
2022-10-05T18:40:21.803Z,0.00
2022-10-05T18:45:21.672Z,0.00
2022-10-05T18:50:21.616Z,0.00
2022-10-05T18:55:21.573Z,0.00
2022-10-05T19:00:21.529Z,0.00
2022-10-05T19:05:46.363Z,0.00
2022-10-05T19:10:22.401Z,0.00
2022-10-05T19:15:21.471Z,0.00
2022-10-05T19:20:21.337Z,0.00
2022-10-05T19:25:21.240Z,0.00
2022-10-05T19:30:21.196Z,0.00
2022-10-05T19:35:21.129Z,0.00
2022-10-05T19:40:21.106Z,0.00
2022-10-05T19:45:21.020Z,0.00
2022-10-05T19:50:20.964Z,0.00
2022-10-05T19:55:20.908Z,0.00
2022-10-05T20:00:20.888Z,0.00
2022-10-05T20:05:20.803Z,0.00
2022-10-05T20:10:20.740Z,0.00
2022-10-05T20:15:20.719Z,0.00
2022-10-05T20:20:20.655Z,0.00
2022-10-05T20:25:20.579Z,0.00
2022-10-05T20:30:20.528Z,0.00
2022-10-05T20:35:20.484Z,0.00
2022-10-05T20:40:20.524Z,0.00
2022-10-05T20:45:20.363Z,0.00
2022-10-05T20:50:20.310Z,0.00
2022-10-05T20:55:20.257Z,0.00
2022-10-05T21:00:20.243Z,0.00
2022-10-05T21:05:20.273Z,0.00
2022-10-05T21:10:20.086Z,0.00
2022-10-05T21:15:20.034Z,0.00
2022-10-05T21:20:19.997Z,0.00
2022-10-05T21:25:19.929Z,0.00
2022-10-05T21:30:19.874Z,0.00
2022-10-05T21:35:19.817Z,0.00
2022-10-05T21:40:19.821Z,0.00
2022-10-05T21:45:19.716Z,0.00
2022-10-05T21:50:19.655Z,0.00
2022-10-05T21:55:19.594Z,0.00
2022-10-05T22:00:19.560Z,0.00
2022-10-05T22:05:19.512Z,0.00
2022-10-05T22:10:19.434Z,0.00
2022-10-05T22:15:19.381Z,0.00
2022-10-05T22:20:26.429Z,0.00
2022-10-05T22:25:19.275Z,0.00
2022-10-05T22:30:19.214Z,0.00
2022-10-05T22:35:19.154Z,0.00
2022-10-05T22:40:19.141Z,0.00
2022-10-05T22:45:19.099Z,0.00
2022-10-05T22:50:19.034Z,0.00
2022-10-05T22:55:18.971Z,0.00
2022-10-05T23:00:19.404Z,0.00
2022-10-05T23:05:18.851Z,0.00
2022-10-05T23:10:18.962Z,0.00
2022-10-05T23:15:18.741Z,0.00
2022-10-05T23:20:18.695Z,0.00
2022-10-05T23:25:18.700Z,0.00
